Tavernes de la Valldigna, Spain
Current Conditions -  °F | °C
As of 6:00 AM on Saturday 22 Nov 2014 (Local Time) from LEVC Reporting Station
Broken Clouds Broken Clouds  
Wind Chill: 59°   Ceiling: 2500
Heat Index: 59°   Visibility: 5mi
Dew Point: 55°   Wind: 5mph
Humidity: 88%   Direction: 320°NW
Pressure: 30.03"   Gusts: NA
Location:  39.07°N, 0.27°W
Report Text: LEVC 220500Z 32004KT 8000 BKN025 15/13 Q1017 NOSIG
Loading
Personal Weather Stations






























Interactive Weather Map New forecast layout! Learn more

10-Day Weather Forecast

Advertisements
Track Severe Weather on mobile